createdAt,value
2022-11-04T04:55:44.735Z,88.22
2022-11-04T04:58:47.135Z,88.22
2022-11-04T05:01:49.564Z,89.92
2022-11-04T05:04:51.983Z,89.52
2022-11-04T05:07:54.027Z,89.16
2022-11-04T05:10:56.339Z,89.71
2022-11-04T05:13:58.543Z,90.81
2022-11-04T05:17:00.839Z,88.06
2022-11-04T05:20:03.053Z,87.82
2022-11-04T05:23:05.330Z,87.85
2022-11-04T05:26:07.538Z,88.25
2022-11-04T05:29:10.485Z,87.76
2022-11-04T05:32:12.596Z,86.79
2022-11-04T05:35:14.955Z,88.18
2022-11-04T05:38:17.013Z,87.28
2022-11-04T05:41:25.665Z,87.38
2022-11-04T05:44:27.958Z,86.26
2022-11-04T05:47:30.241Z,86.45
2022-11-04T05:50:33.331Z,86.69
2022-11-04T05:53:35.620Z,86.41
2022-11-04T05:56:37.799Z,87.19
2022-11-04T05:59:40.163Z,88.22
2022-11-04T06:02:42.290Z,87.98
2022-11-04T06:05:44.647Z,87.24
2022-11-04T06:08:46.693Z,86.81
2022-11-04T06:11:49.176Z,87.13
2022-11-04T06:14:51.279Z,87.45
2022-11-04T06:17:53.563Z,86.50
2022-11-04T06:21:13.800Z,85.83
2022-11-04T06:24:16.087Z,86.00
2022-11-04T06:27:18.186Z,86.29
2022-11-04T06:30:21.277Z,86.87
2022-11-04T06:33:23.484Z,85.71
2022-11-04T06:36:25.828Z,85.21
2022-11-04T06:39:27.938Z,85.92
2022-11-04T06:42:30.291Z,85.29
2022-11-04T06:45:32.307Z,85.93
2022-11-04T06:48:34.739Z,86.31
2022-11-04T06:51:36.789Z,86.10
2022-11-04T06:54:39.636Z,86.29
2022-11-04T06:57:41.770Z,85.67
2022-11-04T07:00:44.331Z,85.48
2022-11-04T07:03:55.348Z,85.83
2022-11-04T07:06:57.659Z,85.48
2022-11-04T07:09:59.683Z,84.96
2022-11-04T07:13:02.006Z,86.43
2022-11-04T07:16:06.165Z,84.25
2022-11-04T07:19:08.530Z,84.15
2022-11-04T07:22:10.667Z,85.36
2022-11-04T07:25:12.988Z,86.17
2022-11-04T07:28:15.228Z,86.04
2022-11-04T07:31:18.115Z,84.86
2022-11-04T07:34:20.165Z,84.79
2022-11-04T07:37:22.502Z,84.16
2022-11-04T07:40:24.523Z,84.26
2022-11-04T07:43:27.603Z,85.04
2022-11-04T07:46:29.658Z,84.90
2022-11-04T07:49:32.033Z,83.73
2022-11-04T07:52:34.163Z,83.65
2022-11-04T07:55:43.326Z,83.96
2022-11-04T07:58:45.801Z,83.31
2022-11-04T08:01:48.198Z,83.35
2022-11-04T08:16:52.876Z,83.49
2022-11-04T08:19:55.502Z,83.25
2022-11-04T08:22:57.531Z,84.12
2022-11-04T08:26:00.529Z,83.62
2022-11-04T08:29:07.877Z,83.88
2022-11-04T08:32:10.180Z,83.11
2022-11-04T08:35:12.285Z,82.53
2022-11-04T08:38:14.604Z,82.79
2022-11-04T08:41:19.854Z,83.22
2022-11-04T08:44:22.351Z,83.56
2022-11-04T08:47:24.388Z,84.25
2022-11-04T08:50:27.855Z,82.81
2022-11-04T08:53:30.041Z,83.20
2022-11-04T08:56:35.975Z,82.94
2022-11-04T08:59:38.035Z,84.16
2022-11-04T09:02:40.329Z,83.88
2022-11-04T09:05:47.291Z,82.52
2022-11-04T09:08:50.960Z,82.53
2022-11-04T09:11:53.879Z,84.38
2022-11-04T09:14:56.210Z,85.16
2022-11-04T09:17:58.231Z,84.96
2022-11-04T09:21:02.285Z,85.26
2022-11-04T09:24:05.012Z,84.93
2022-11-04T09:27:07.449Z,85.93
2022-11-04T09:30:10.256Z,86.75
2022-11-04T09:33:12.608Z,87.45
2022-11-04T09:36:14.652Z,85.91
2022-11-04T09:39:17.564Z,84.38
2022-11-04T09:42:46.916Z,84.42
2022-11-04T09:45:49.788Z,86.85
2022-11-04T09:48:55.181Z,84.67
2022-11-04T09:51:59.390Z,85.10
2022-11-04T09:55:11.331Z,85.08
2022-11-04T09:58:14.749Z,84.68
2022-11-04T10:01:28.219Z,85.43
2022-11-04T10:04:58.912Z,85.46
2022-11-04T10:08:03.829Z,86.53
2022-11-04T10:11:26.142Z,86.29
2022-11-04T10:14:53.042Z,87.23
2022-11-04T10:17:58.239Z,87.61
2022-11-04T10:21:21.442Z,87.89
2022-11-04T10:24:41.324Z,88.79
2022-11-04T10:27:46.802Z,89.17
2022-11-04T10:30:51.820Z,90.94
2022-11-04T10:34:04.121Z,90.77
2022-11-04T10:37:11.394Z,90.32
2022-11-04T10:40:27.028Z,89.68
2022-11-04T10:43:41.405Z,89.37
2022-11-04T10:47:27.883Z,91.52
2022-11-04T10:50:46.266Z,91.83
2022-11-04T10:53:55.281Z,91.55
2022-11-04T10:56:58.333Z,90.48
2022-11-04T11:00:05.221Z,89.59
2022-11-04T11:03:28.949Z,90.74
2022-11-04T11:06:33.419Z,91.97
2022-11-04T11:10:01.493Z,90.62
2022-11-04T11:13:07.478Z,91.00
2022-11-04T11:16:17.156Z,91.67
2022-11-04T11:19:22.046Z,89.94
2022-11-04T11:22:33.841Z,90.65
2022-11-04T11:25:42.284Z,90.41
2022-11-04T11:28:59.177Z,90.11
2022-11-04T11:32:01.594Z,91.11
2022-11-04T11:35:10.725Z,89.13
2022-11-04T11:38:28.681Z,90.72
2022-11-04T11:41:33.520Z,90.01
2022-11-04T11:44:47.828Z,89.92
2022-11-04T11:47:54.851Z,90.08
2022-11-04T11:50:58.770Z,89.71
2022-11-04T11:54:17.711Z,89.97
2022-11-04T11:57:35.926Z,88.74
2022-11-04T12:01:10.091Z,89.53
2022-11-04T12:11:33.083Z,90.14
2022-11-04T12:14:43.581Z,89.28
2022-11-04T12:18:00.417Z,88.51
2022-11-04T12:21:21.586Z,88.28
2022-11-04T12:24:42.482Z,90.67
2022-11-04T12:27:58.952Z,90.59
2022-11-04T12:31:16.289Z,89.95
2022-11-04T12:34:49.095Z,88.97
2022-11-04T12:38:27.975Z,88.90
2022-11-04T12:41:58.762Z,88.38
2022-11-04T12:45:18.555Z,88.73
2022-11-04T12:48:56.883Z,88.56
2022-11-04T12:52:37.335Z,88.42
2022-11-04T12:55:52.091Z,89.32
2022-11-04T12:59:19.406Z,88.21
2022-11-04T13:02:31.581Z,89.22
2022-11-04T13:05:51.661Z,89.56
2022-11-04T13:09:02.583Z,89.35
2022-11-04T13:12:31.622Z,88.81
2022-11-04T13:15:43.197Z,88.02
2022-11-04T13:18:47.841Z,87.95
2022-11-04T13:21:50.436Z,88.18
2022-11-04T13:24:59.241Z,87.91
2022-11-04T13:28:02.991Z,87.25
2022-11-04T13:31:34.048Z,88.09
2022-11-04T13:34:55.263Z,86.74
2022-11-04T13:38:00.167Z,87.02
2022-11-04T13:41:21.764Z,87.26
2022-11-04T13:44:31.835Z,87.60
2022-11-04T13:47:48.472Z,87.54
2022-11-04T13:51:00.831Z,86.67
2022-11-04T13:54:03.825Z,86.73
2022-11-04T13:57:16.616Z,86.13
2022-11-04T14:00:24.336Z,86.91
2022-11-04T14:03:26.544Z,86.35
2022-11-04T14:07:03.716Z,87.51
2022-11-04T14:10:45.762Z,87.44
2022-11-04T14:14:04.761Z,88.30
2022-11-04T14:17:35.226Z,87.95
2022-11-04T14:20:37.259Z,88.98
2022-11-04T14:23:42.097Z,89.75
2022-11-04T14:26:46.576Z,89.36
2022-11-04T14:29:52.183Z,90.21
2022-11-04T14:32:59.458Z,89.84
2022-11-04T14:36:22.010Z,90.40
2022-11-04T14:39:28.582Z,90.05
2022-11-04T14:42:48.732Z,90.92
2022-11-04T14:45:51.069Z,90.64
2022-11-04T14:48:57.046Z,90.78
2022-11-04T14:51:59.256Z,91.42
2022-11-04T14:55:10.938Z,91.43
2022-11-04T14:58:25.174Z,88.45
2022-11-04T15:01:34.638Z,88.40
2022-11-04T15:04:37.454Z,87.70
2022-11-04T15:07:40.540Z,87.96
2022-11-04T15:10:42.583Z,88.28
2022-11-04T15:13:51.661Z,89.03
2022-11-04T15:16:57.119Z,88.98
2022-11-04T15:20:02.093Z,90.43
2022-11-04T15:23:08.207Z,89.35
2022-11-04T15:26:30.129Z,90.39
2022-11-04T15:29:33.357Z,90.66
2022-11-04T15:32:35.742Z,90.62
2022-11-04T15:35:43.337Z,90.79
2022-11-04T15:38:50.311Z,90.35
2022-11-04T15:42:16.165Z,91.07
2022-11-04T15:45:39.122Z,90.78
2022-11-04T15:48:41.254Z,90.77
2022-11-04T15:51:43.616Z,91.06
2022-11-04T15:54:48.481Z,91.45
2022-11-04T15:57:51.720Z,91.59
2022-11-04T16:00:55.774Z,91.67
2022-11-04T16:04:00.965Z,90.62
2022-11-04T16:07:23.318Z,91.18
2022-11-04T16:10:25.756Z,92.40
2022-11-04T16:13:27.827Z,92.22
2022-11-04T16:16:30.189Z,91.20
2022-11-04T16:19:32.296Z,92.30
2022-11-04T16:22:38.829Z,91.85
2022-11-04T16:25:40.916Z,91.26
2022-11-04T16:28:43.468Z,91.70
2022-11-04T16:31:45.748Z,91.05
2022-11-04T16:34:52.776Z,91.64
2022-11-04T16:37:56.152Z,91.67
